createdAt,value
2018-09-12T00:00:32.527Z,6.53
2018-09-12T00:03:02.298Z,8.03
2018-09-12T00:05:30.700Z,5.80
2018-09-12T00:07:59.113Z,21.20
2018-09-12T00:10:27.483Z,5.97
2018-09-12T00:12:55.880Z,6.03
2018-09-12T00:15:24.260Z,6.77
2018-09-12T00:17:52.639Z,5.97
2018-09-12T00:20:21.091Z,7.70
2018-09-12T00:22:49.489Z,5.93
2018-09-12T00:25:17.947Z,7.60
2018-09-12T00:27:46.358Z,5.83
2018-09-12T00:30:14.809Z,8.33
2018-09-12T00:32:43.173Z,6.83
2018-09-12T00:35:11.577Z,7.53
2018-09-12T00:37:40.051Z,10.63
2018-09-12T00:40:08.921Z,8.00
2018-09-12T00:42:37.304Z,7.10
2018-09-12T00:45:05.823Z,10.73
2018-09-12T00:47:34.216Z,7.40
2018-09-12T00:50:03.154Z,7.53
2018-09-12T00:52:31.609Z,8.60
2018-09-12T00:55:00.336Z,9.33
2018-09-12T00:57:28.710Z,9.97
2018-09-12T00:59:57.159Z,9.13
2018-09-12T01:02:25.639Z,7.03
2018-09-12T01:04:55.088Z,10.10
2018-09-12T01:07:23.568Z,6.97
2018-09-12T01:09:51.939Z,5.13
2018-09-12T01:12:20.326Z,6.93
2018-09-12T01:14:48.712Z,5.60
2018-09-12T01:17:17.216Z,8.70
2018-09-12T01:19:46.248Z,9.37
2018-09-12T01:22:15.208Z,9.60
2018-09-12T01:24:43.632Z,7.03
2018-09-12T01:27:12.007Z,5.00
2018-09-12T01:29:40.418Z,4.67
2018-09-12T01:32:09.488Z,4.73
2018-09-12T01:34:37.905Z,5.10
2018-09-12T01:37:06.336Z,9.40
2018-09-12T01:39:34.760Z,9.00
2018-09-12T01:42:03.146Z,7.00
2018-09-12T01:44:31.921Z,4.27
2018-09-12T01:47:00.356Z,8.47
2018-09-12T01:49:28.787Z,11.47
2018-09-12T01:51:57.186Z,4.80
2018-09-12T01:54:25.677Z,8.83
2018-09-12T01:56:54.052Z,5.00
2018-09-12T01:59:22.497Z,4.60
2018-09-12T02:01:50.905Z,5.90
2018-09-12T02:04:19.288Z,6.20
2018-09-12T02:06:47.696Z,8.57
2018-09-12T02:09:16.289Z,7.43
2018-09-12T02:11:44.709Z,6.33
2018-09-12T02:14:13.120Z,5.33
2018-09-12T02:16:41.556Z,10.33
2018-09-12T02:19:09.964Z,6.10
2018-09-12T02:21:38.360Z,6.70
2018-09-12T02:24:06.470Z,5.17
2018-09-12T02:26:34.995Z,7.07
2018-09-12T02:29:03.456Z,7.90
2018-09-12T02:31:31.833Z,5.53
2018-09-12T02:34:00.266Z,7.40
2018-09-12T02:36:29.751Z,9.10
2018-09-12T02:38:59.572Z,15.13
2018-09-12T02:41:28.036Z,6.37
2018-09-12T02:43:56.448Z,6.13
2018-09-12T02:46:24.871Z,6.17
2018-09-12T02:48:53.453Z,6.47
2018-09-12T02:51:21.821Z,6.20
2018-09-12T02:53:50.228Z,7.30
2018-09-12T02:56:19.111Z,5.60
2018-09-12T02:58:48.928Z,5.47
2018-09-12T03:01:19.192Z,5.87
2018-09-12T03:03:47.603Z,6.47
2018-09-12T03:06:16.008Z,6.80
2018-09-12T03:08:44.409Z,7.63
2018-09-12T03:11:12.842Z,6.07
2018-09-12T03:13:41.228Z,8.40
2018-09-12T03:16:09.677Z,5.53
2018-09-12T03:18:38.127Z,7.13
2018-09-12T03:21:07.654Z,7.50
2018-09-12T03:23:35.942Z,9.53
2018-09-12T03:26:04.323Z,5.53
2018-09-12T03:28:32.758Z,5.43
2018-09-12T03:31:01.156Z,10.33
2018-09-12T03:33:29.563Z,4.83
2018-09-12T03:35:57.982Z,8.70
2018-09-12T03:38:26.381Z,7.20
2018-09-12T03:40:54.772Z,7.97
2018-09-12T03:43:23.177Z,7.97
2018-09-12T03:45:51.557Z,7.53
2018-09-12T03:48:19.970Z,8.57
2018-09-12T03:50:48.656Z,6.80
2018-09-12T03:53:17.095Z,9.60
2018-09-12T03:55:45.520Z,6.40
2018-09-12T03:58:13.981Z,8.47
2018-09-12T04:00:42.389Z,7.27
2018-09-12T04:03:10.797Z,9.90
2018-09-12T04:05:39.256Z,5.00
2018-09-12T04:08:07.639Z,7.20
2018-09-12T04:10:36.700Z,7.43
2018-09-12T04:13:05.134Z,7.47
2018-09-12T04:15:33.523Z,8.50
2018-09-12T04:18:01.951Z,10.70
2018-09-12T04:20:30.349Z,6.77
2018-09-12T04:22:58.802Z,9.83
2018-09-12T04:25:27.213Z,9.50
2018-09-12T04:27:56.076Z,9.50
2018-09-12T04:30:24.633Z,11.20
2018-09-12T04:32:52.992Z,9.20
2018-09-12T04:35:21.395Z,7.83
2018-09-12T04:37:49.837Z,6.70
2018-09-12T04:40:18.254Z,8.00
2018-09-12T04:42:46.703Z,9.60
2018-09-12T04:45:15.097Z,8.30
2018-09-12T04:47:43.488Z,6.60
2018-09-12T04:50:11.855Z,9.23
2018-09-12T04:52:40.289Z,8.27
2018-09-12T04:55:09.560Z,8.53
2018-09-12T04:57:37.920Z,8.90
2018-09-12T05:00:06.471Z,8.07
2018-09-12T05:02:35.050Z,7.37
2018-09-12T05:05:03.456Z,10.50
2018-09-12T05:07:32.033Z,8.83
2018-09-12T05:10:00.465Z,9.07
2018-09-12T05:12:28.848Z,6.97
2018-09-12T05:14:57.459Z,9.23
2018-09-12T05:17:25.856Z,6.30
2018-09-12T05:19:54.252Z,7.90
2018-09-12T05:22:22.617Z,7.60
2018-09-12T05:24:51.417Z,9.03
2018-09-12T05:27:19.814Z,8.40
2018-09-12T05:29:48.312Z,9.17
2018-09-12T05:32:16.692Z,7.10
2018-09-12T05:34:45.095Z,7.30
2018-09-12T05:37:13.723Z,7.67
2018-09-12T05:39:42.641Z,9.03
2018-09-12T05:42:11.028Z,8.03
2018-09-12T05:44:40.407Z,8.00
2018-09-12T05:47:08.832Z,12.93
2018-09-12T05:49:37.263Z,8.63
2018-09-12T05:52:05.809Z,10.87
2018-09-12T05:54:34.239Z,10.60
2018-09-12T05:57:03.451Z,15.77
2018-09-12T05:59:31.864Z,10.17
2018-09-12T06:02:00.265Z,9.73
2018-09-12T06:04:28.682Z,8.17
2018-09-12T06:06:57.145Z,6.10
2018-09-12T06:09:25.561Z,13.47
2018-09-12T06:11:53.993Z,11.07
2018-09-12T06:14:22.433Z,17.97
2018-09-12T06:16:50.802Z,10.47
2018-09-12T06:19:19.240Z,11.60
2018-09-12T06:21:47.648Z,10.27
2018-09-12T06:24:16.065Z,10.70
2018-09-12T06:26:44.562Z,12.90
2018-09-12T06:29:12.964Z,10.20
2018-09-12T06:31:41.340Z,11.17
2018-09-12T06:34:10.320Z,12.23
2018-09-12T06:36:38.786Z,11.27
2018-09-12T06:39:09.634Z,10.83
2018-09-12T06:41:38.064Z,19.80
2018-09-12T06:44:06.560Z,8.53
2018-09-12T06:46:35.112Z,10.57
2018-09-12T06:49:04.681Z,18.13
2018-09-12T06:51:33.186Z,10.97
2018-09-12T06:54:01.710Z,19.50
2018-09-12T06:56:30.202Z,16.97
2018-09-12T06:58:58.663Z,19.23
2018-09-12T07:01:27.064Z,16.27
2018-09-12T07:03:55.427Z,14.77
2018-09-12T07:06:23.954Z,13.43
2018-09-12T07:08:52.358Z,10.17
2018-09-12T07:11:20.767Z,13.30
2018-09-12T07:13:49.167Z,15.73
2018-09-12T07:16:17.563Z,17.37
2018-09-12T07:18:45.978Z,13.00
2018-09-12T07:21:14.432Z,21.37
2018-09-12T07:23:42.840Z,11.57
2018-09-12T07:26:11.257Z,12.50
2018-09-12T07:28:39.600Z,12.07
2018-09-12T07:31:08.036Z,15.07
2018-09-12T07:33:36.504Z,13.93
2018-09-12T07:36:04.964Z,13.50
2018-09-12T07:38:33.381Z,13.80
2018-09-12T07:41:01.846Z,14.53
2018-09-12T07:43:30.240Z,14.23
2018-09-12T07:45:58.689Z,16.03
2018-09-12T07:48:27.115Z,11.90
2018-09-12T07:50:57.032Z,17.87
2018-09-12T07:53:25.440Z,16.40
2018-09-12T07:55:53.969Z,15.83
2018-09-12T07:58:22.332Z,12.63
2018-09-12T08:00:50.759Z,17.23
2018-09-12T08:03:19.197Z,17.47
2018-09-12T08:05:47.621Z,20.50
2018-09-12T08:08:16.042Z,13.47
2018-09-12T08:10:44.464Z,11.20
2018-09-12T08:13:12.885Z,18.07
2018-09-12T08:15:41.413Z,21.80
2018-09-12T08:18:09.788Z,15.20
2018-09-12T08:20:38.281Z,18.53
2018-09-12T08:23:06.919Z,13.93
2018-09-12T08:25:35.310Z,14.50
2018-09-12T08:28:03.756Z,26.03
2018-09-12T08:30:32.829Z,29.20
2018-09-12T08:33:02.139Z,12.50
2018-09-12T08:35:31.301Z,12.07
2018-09-12T08:37:59.686Z,12.73
2018-09-12T08:40:28.074Z,12.60
2018-09-12T08:42:56.484Z,18.00
2018-09-12T08:45:24.944Z,18.90
2018-09-12T08:47:53.443Z,17.43
2018-09-12T08:50:23.999Z,11.73
2018-09-12T08:52:53.614Z,9.90
2018-09-12T08:55:22.035Z,12.73
2018-09-12T08:57:50.531Z,13.00
2018-09-12T09:00:19.635Z,15.23
2018-09-12T09:02:48.041Z,9.80
2018-09-12T09:05:16.544Z,11.57
2018-09-12T09:07:44.992Z,9.80
2018-09-12T09:10:13.470Z,14.03
2018-09-12T09:12:41.905Z,15.73
2018-09-12T09:15:10.300Z,13.10
2018-09-12T09:17:38.701Z,14.17
2018-09-12T09:20:07.221Z,20.07
2018-09-12T09:22:35.664Z,10.00
2018-09-12T09:25:04.355Z,11.80
2018-09-12T09:27:32.817Z,12.37
2018-09-12T09:30:01.324Z,12.57
2018-09-12T09:32:29.704Z,17.60
2018-09-12T09:34:58.148Z,20.30
2018-09-12T09:37:26.475Z,12.73
2018-09-12T09:39:54.903Z,16.33
2018-09-12T09:42:23.349Z,13.00
2018-09-12T09:44:52.214Z,11.33
2018-09-12T09:47:20.649Z,16.90
2018-09-12T09:49:51.724Z,14.50
2018-09-12T09:52:20.141Z,11.63
2018-09-12T09:54:48.607Z,13.03
2018-09-12T09:57:17.005Z,11.50
2018-09-12T09:59:45.509Z,13.93
2018-09-12T10:03:22.940Z,15.70
2018-09-12T10:05:56.681Z,10.80
2018-09-12T10:08:28.746Z,11.00
2018-09-12T10:10:57.525Z,14.43
2018-09-12T10:13:25.996Z,16.13
2018-09-12T10:15:54.465Z,15.77
2018-09-12T10:18:22.896Z,11.40
2018-09-12T10:20:51.348Z,9.43
2018-09-12T10:23:21.827Z,12.60
2018-09-12T10:25:50.427Z,12.17
2018-09-12T10:28:19.008Z,12.00
2018-09-12T10:30:47.456Z,13.63
2018-09-12T10:33:16.089Z,15.60
2018-09-12T10:35:44.538Z,11.63
2018-09-12T10:38:12.916Z,12.50
2018-09-12T10:40:41.706Z,12.87
2018-09-12T10:43:10.309Z,16.13
2018-09-12T10:45:38.728Z,15.50
2018-09-12T10:48:07.376Z,13.73
2018-09-12T10:50:35.792Z,8.87
2018-09-12T10:53:04.216Z,11.77
2018-09-12T10:55:32.890Z,13.77
2018-09-12T10:58:01.315Z,15.40
2018-09-12T11:00:29.828Z,14.50
2018-09-12T11:02:58.240Z,11.90
2018-09-12T11:05:26.744Z,13.50
2018-09-12T11:07:55.165Z,14.23
2018-09-12T11:10:24.132Z,15.87
2018-09-12T11:12:52.526Z,18.07
2018-09-12T11:15:20.919Z,13.00
2018-09-12T11:17:49.352Z,11.70
2018-09-12T11:20:17.800Z,14.00
2018-09-12T11:22:46.244Z,9.70
2018-09-12T11:25:14.642Z,13.17
2018-09-12T11:27:43.062Z,12.77
2018-09-12T11:30:11.500Z,15.10
2018-09-12T11:32:39.947Z,11.00
2018-09-12T11:35:09.192Z,9.17
2018-09-12T11:37:37.577Z,11.90
2018-09-12T11:40:06.037Z,9.57
2018-09-12T11:42:34.420Z,14.80
2018-09-12T11:45:03.326Z,12.33
2018-09-12T11:47:31.762Z,11.77
2018-09-12T11:50:01.970Z,11.50
2018-09-12T11:52:31.485Z,19.43
2018-09-12T11:55:01.135Z,20.73
2018-09-12T11:57:30.295Z,14.43
2018-09-12T11:59:58.873Z,15.20
2018-09-12T12:02:27.332Z,18.77
2018-09-12T12:04:55.741Z,13.83
2018-09-12T12:07:24.186Z,13.37
2018-09-12T12:09:52.683Z,16.13
2018-09-12T12:12:21.105Z,13.77
2018-09-12T12:14:49.607Z,12.13
2018-09-12T12:17:18.657Z,9.53
2018-09-12T12:19:47.277Z,13.70
2018-09-12T12:22:15.685Z,9.63
2018-09-12T12:24:45.075Z,13.57
2018-09-12T12:27:13.499Z,9.23
2018-09-12T12:29:41.944Z,12.20
2018-09-12T12:32:10.339Z,12.70
2018-09-12T12:34:38.818Z,12.23
2018-09-12T12:37:07.229Z,9.80
2018-09-12T12:39:35.580Z,8.47
2018-09-12T12:42:04.030Z,10.83
2018-09-12T12:44:32.796Z,13.50
2018-09-12T12:47:01.506Z,11.63
2018-09-12T12:49:30.049Z,11.73
2018-09-12T12:51:59.261Z,12.90
2018-09-12T12:54:27.709Z,11.73
2018-09-12T12:56:56.255Z,16.80
2018-09-12T12:59:24.693Z,11.17
2018-09-12T13:01:53.088Z,13.43
2018-09-12T13:04:21.621Z,13.40
2018-09-12T13:06:50.043Z,13.80
2018-09-12T13:09:18.481Z,11.00
2018-09-12T13:11:46.929Z,11.57
2018-09-12T13:14:15.375Z,13.73
2018-09-12T13:16:44.045Z,11.20
2018-09-12T13:19:12.529Z,15.90
2018-09-12T13:21:41.066Z,10.87
2018-09-12T13:24:09.359Z,12.23
2018-09-12T13:26:37.792Z,12.40
2018-09-12T13:29:06.300Z,13.87
2018-09-12T13:31:34.787Z,11.27
2018-09-12T13:34:03.189Z,14.50
2018-09-12T13:36:31.631Z,12.50
2018-09-12T13:39:00.105Z,14.27
2018-09-12T13:41:28.530Z,13.87
2018-09-12T13:43:56.962Z,18.70
2018-09-12T13:46:25.398Z,19.77
2018-09-12T13:48:53.820Z,22.47
2018-09-12T13:51:22.250Z,34.53
2018-09-12T13:53:50.680Z,26.53
2018-09-12T13:56:19.305Z,17.63
2018-09-12T13:58:47.753Z,18.40
2018-09-12T14:01:16.204Z,16.87
2018-09-12T14:03:44.922Z,18.77
2018-09-12T14:06:13.426Z,17.83
2018-09-12T14:08:41.931Z,21.07
2018-09-12T14:11:10.347Z,22.70
2018-09-12T14:13:38.757Z,17.03
2018-09-12T14:16:07.491Z,17.27
2018-09-12T14:18:36.964Z,18.40
2018-09-12T14:21:05.378Z,18.77
2018-09-12T14:23:33.827Z,15.40
2018-09-12T14:26:02.244Z,21.23
2018-09-12T14:28:30.729Z,18.20
2018-09-12T14:30:59.295Z,19.00
2018-09-12T14:33:27.766Z,19.30
2018-09-12T14:35:56.224Z,21.40
2018-09-12T14:38:25.488Z,27.63
2018-09-12T14:40:53.885Z,23.73
2018-09-12T14:43:22.273Z,20.10
2018-09-12T14:45:50.726Z,27.50
2018-09-12T14:48:19.126Z,18.37
2018-09-12T14:50:47.543Z,28.70
2018-09-12T14:53:15.917Z,19.13
2018-09-12T14:55:44.458Z,15.10
2018-09-12T14:58:12.853Z,16.87
2018-09-12T15:00:41.541Z,15.97
2018-09-12T15:03:10.094Z,20.23
2018-09-12T15:05:38.582Z,19.17
2018-09-12T15:08:07.024Z,18.77
2018-09-12T15:10:35.492Z,23.90
2018-09-12T15:13:03.885Z,22.77
2018-09-12T15:15:32.321Z,23.23
2018-09-12T15:18:01.753Z,19.57
2018-09-12T15:20:30.176Z,17.33
2018-09-12T15:22:58.684Z,25.63
2018-09-12T15:25:27.183Z,29.30
2018-09-12T15:27:55.631Z,37.40
2018-09-12T15:30:24.064Z,41.23
2018-09-12T15:32:52.567Z,36.40
2018-09-12T15:35:21.128Z,26.13
2018-09-12T15:37:49.557Z,28.30
2018-09-12T15:40:18.001Z,24.47
2018-09-12T15:42:46.449Z,26.47
2018-09-12T15:45:14.940Z,23.20
2018-09-12T15:47:43.358Z,30.00
2018-09-12T15:50:11.878Z,20.80
2018-09-12T15:52:40.929Z,21.50
2018-09-12T15:55:09.450Z,17.43
2018-09-12T15:57:37.855Z,14.20
2018-09-12T16:00:06.427Z,16.50
2018-09-12T16:02:34.928Z,13.50
2018-09-12T16:05:03.701Z,12.67
2018-09-12T16:07:32.315Z,9.50
2018-09-12T16:10:00.840Z,11.17
2018-09-12T16:12:29.274Z,10.17
2018-09-12T16:14:58.093Z,14.00
2018-09-12T16:17:26.502Z,12.53
2018-09-12T16:19:55.108Z,9.87
2018-09-12T16:22:23.688Z,8.90
2018-09-12T16:24:52.159Z,12.43
2018-09-12T16:27:21.800Z,8.93
2018-09-12T16:29:50.265Z,11.87
2018-09-12T16:32:18.768Z,13.30
2018-09-12T16:34:47.248Z,10.97
2018-09-12T16:37:15.631Z,11.13
2018-09-12T16:39:44.017Z,11.63
2018-09-12T16:42:12.517Z,13.50
2018-09-12T16:44:40.953Z,7.27
2018-09-12T16:47:09.381Z,4.47
2018-09-12T16:49:37.840Z,3.73
2018-09-12T16:52:06.303Z,4.07
2018-09-12T16:54:34.747Z,1.80
2018-09-12T16:57:03.228Z,2.70
2018-09-12T16:59:31.654Z,4.93
2018-09-12T17:02:00.061Z,2.80
2018-09-12T17:04:28.486Z,2.63
2018-09-12T17:06:56.897Z,4.33
2018-09-12T17:09:25.370Z,2.90
2018-09-12T17:11:53.855Z,3.60
2018-09-12T17:14:22.887Z,1.80
2018-09-12T17:16:51.295Z,1.97
2018-09-12T17:19:20.862Z,2.63
2018-09-12T17:21:49.645Z,5.40
2018-09-12T17:24:18.016Z,1.60
2018-09-12T17:26:46.446Z,1.77
2018-09-12T17:29:14.920Z,3.10
2018-09-12T17:31:43.375Z,3.03
2018-09-12T17:34:11.809Z,1.80
2018-09-12T17:36:40.315Z,2.90
2018-09-12T17:39:09.687Z,1.90
2018-09-12T17:41:38.108Z,7.30
2018-09-12T17:44:06.619Z,9.50
2018-09-12T17:46:35.136Z,2.00
2018-09-12T17:49:03.694Z,1.57
2018-09-12T17:51:32.496Z,3.87
2018-09-12T17:54:01.492Z,3.37
2018-09-12T17:56:29.968Z,1.97
2018-09-12T17:58:58.417Z,6.90
2018-09-12T18:01:26.862Z,3.90
2018-09-12T18:03:55.374Z,3.57
2018-09-12T18:06:23.812Z,2.03
2018-09-12T18:08:52.229Z,3.60
2018-09-12T18:11:21.280Z,4.77
2018-09-12T18:13:49.772Z,4.93
2018-09-12T18:16:18.241Z,6.50
2018-09-12T18:18:46.848Z,3.40
2018-09-12T18:21:15.357Z,7.60
2018-09-12T18:23:44.446Z,3.37
2018-09-12T18:26:12.912Z,3.70
2018-09-12T18:28:41.350Z,3.40
2018-09-12T18:31:09.813Z,4.23
2018-09-12T18:33:38.241Z,4.20
2018-09-12T18:36:06.895Z,3.40
2018-09-12T18:38:35.481Z,3.13
2018-09-12T18:41:03.908Z,4.13
2018-09-12T18:43:32.410Z,3.70
2018-09-12T18:46:00.852Z,4.80
2018-09-12T18:48:29.310Z,3.33
2018-09-12T18:50:57.842Z,8.53
2018-09-12T18:53:26.265Z,5.10
2018-09-12T18:55:54.778Z,6.23
2018-09-12T18:58:23.250Z,6.17
2018-09-12T19:00:51.656Z,7.93
2018-09-12T19:03:20.140Z,5.93
2018-09-12T19:05:49.288Z,7.33
2018-09-12T19:08:17.738Z,7.00
2018-09-12T19:10:46.165Z,6.00
2018-09-12T19:13:14.658Z,4.77
2018-09-12T19:15:43.037Z,4.10
2018-09-12T19:18:11.519Z,4.20
2018-09-12T19:20:39.900Z,3.23
2018-09-12T19:23:08.403Z,5.40
2018-09-12T19:25:36.816Z,7.80
2018-09-12T19:28:05.298Z,5.67
2018-09-12T19:30:34.674Z,4.73
2018-09-12T19:33:03.076Z,4.87
2018-09-12T19:35:31.513Z,4.47
2018-09-12T19:37:59.911Z,3.90
2018-09-12T19:40:28.349Z,4.70
2018-09-12T19:42:56.787Z,4.57
2018-09-12T19:45:25.244Z,7.00
2018-09-12T19:47:53.719Z,12.10
2018-09-12T19:50:22.341Z,9.00
2018-09-12T19:52:50.777Z,7.70
2018-09-12T19:55:19.545Z,7.50
2018-09-12T19:57:48.008Z,5.13
2018-09-12T20:00:18.051Z,13.73
2018-09-12T20:02:46.557Z,11.07
2018-09-12T20:05:15.046Z,11.07
2018-09-12T20:07:43.556Z,11.27
2018-09-12T20:10:12.021Z,12.77
2018-09-12T20:12:40.520Z,20.40
2018-09-12T20:15:08.984Z,12.80
2018-09-12T20:17:37.983Z,14.50
2018-09-12T20:20:06.810Z,16.30
2018-09-12T20:22:35.320Z,12.67
2018-09-12T20:25:03.785Z,10.63
2018-09-12T20:27:32.248Z,11.67
2018-09-12T20:30:00.719Z,7.60
2018-09-12T20:32:29.926Z,9.00
2018-09-12T20:34:58.380Z,8.07
2018-09-12T20:37:26.784Z,13.37
2018-09-12T20:39:55.192Z,10.83
2018-09-12T20:42:23.586Z,9.70
2018-09-12T20:44:51.995Z,7.27
2018-09-12T20:47:20.440Z,9.67
2018-09-12T20:49:48.955Z,9.37
2018-09-12T20:52:18.324Z,10.37
2018-09-12T20:54:46.776Z,10.90
2018-09-12T20:57:16.129Z,8.80
2018-09-12T20:59:45.520Z,10.77
2018-09-12T21:02:13.962Z,9.53
2018-09-12T21:04:42.381Z,11.10
2018-09-12T21:07:10.850Z,13.27
2018-09-12T21:09:39.329Z,16.67
2018-09-12T21:12:08.080Z,14.40
2018-09-12T21:14:36.563Z,13.33
2018-09-12T21:17:05.011Z,13.43
2018-09-12T21:19:34.855Z,12.53
2018-09-12T21:22:03.289Z,17.30
2018-09-12T21:24:31.771Z,17.87
2018-09-12T21:27:01.167Z,15.40
2018-09-12T21:29:29.695Z,21.83
2018-09-12T21:31:58.111Z,20.13
2018-09-12T21:34:26.913Z,18.90
2018-09-12T21:36:56.205Z,21.57
2018-09-12T21:39:24.573Z,24.03
2018-09-12T21:41:57.168Z,21.80
2018-09-12T21:44:25.573Z,25.80
2018-09-12T21:46:53.957Z,28.33
2018-09-12T21:49:22.392Z,24.53
2018-09-12T21:51:52.719Z,24.30
2018-09-12T21:54:24.211Z,24.73
2018-09-12T21:56:52.814Z,26.00
2018-09-12T21:59:25.990Z,23.23
2018-09-12T22:01:54.846Z,24.93
2018-09-12T22:04:23.356Z,30.83
2018-09-12T22:06:51.786Z,30.27
2018-09-12T22:09:20.215Z,33.73
2018-09-12T22:11:48.697Z,30.47
2018-09-12T22:14:17.106Z,32.63
2018-09-12T22:16:45.571Z,29.40
2018-09-12T22:19:13.988Z,30.70
2018-09-12T22:21:42.397Z,31.70
2018-09-12T22:24:10.839Z,31.77
2018-09-12T22:26:39.645Z,39.07
2018-09-12T22:29:08.686Z,34.97
2018-09-12T22:31:37.048Z,29.60
2018-09-12T22:34:13.219Z,29.70
2018-09-12T22:36:44.840Z,27.97
2018-09-12T22:39:13.257Z,29.33
2018-09-12T22:41:41.684Z,25.57
2018-09-12T22:44:10.087Z,25.90
2018-09-12T22:46:38.560Z,28.67
2018-09-12T22:49:06.958Z,28.13
2018-09-12T22:51:35.354Z,26.27
2018-09-12T22:54:04.041Z,30.80
2018-09-12T22:56:32.423Z,28.57
2018-09-12T22:59:00.942Z,28.63
2018-09-12T23:01:30.327Z,27.50
2018-09-12T23:03:58.765Z,30.10
2018-09-12T23:06:27.186Z,30.93
2018-09-12T23:08:55.669Z,29.40
2018-09-12T23:11:24.086Z,30.67
2018-09-12T23:13:52.550Z,30.10
2018-09-12T23:16:20.916Z,32.27
2018-09-12T23:18:49.924Z,30.70
2018-09-12T23:21:18.333Z,35.83
2018-09-12T23:23:46.713Z,32.33
2018-09-12T23:26:15.152Z,32.43
2018-09-12T23:28:43.571Z,30.70
2018-09-12T23:31:12.007Z,32.87
2018-09-12T23:33:40.748Z,31.57
2018-09-12T23:36:09.143Z,32.20
2018-09-12T23:38:37.589Z,37.60
2018-09-12T23:41:06.357Z,37.43
2018-09-12T23:43:35.166Z,32.07
2018-09-12T23:46:03.559Z,34.03
2018-09-12T23:48:32.287Z,38.00
2018-09-12T23:51:00.695Z,37.43
2018-09-12T23:53:29.325Z,33.53
2018-09-12T23:55:57.748Z,35.50
2018-09-12T23:58:27.037Z,35.13
